sensor_id;sensor_type;location;lat;lon;timestamp;P1;durP1;ratioP1;P2;durP2;ratioP2
1062;SDS011;520;50.932;6.962;2023-11-19T00:00:31;0.97;;;0.50;;
1062;SDS011;520;50.932;6.962;2023-11-19T00:03:23;0.67;;;0.50;;
1062;SDS011;520;50.932;6.962;2023-11-19T00:06:11;2.93;;;0.77;;
1062;SDS011;520;50.932;6.962;2023-11-19T00:09:02;0.67;;;0.60;;
1062;SDS011;520;50.932;6.962;2023-11-19T00:11:55;1.57;;;1.10;;
1062;SDS011;520;50.932;6.962;2023-11-19T00:14:30;0.73;;;0.60;;
1062;SDS011;520;50.932;6.962;2023-11-19T00:17:20;0.60;;;0.60;;
1062;SDS011;520;50.932;6.962;2023-11-19T00:20:03;1.37;;;0.60;;
1062;SDS011;520;50.932;6.962;2023-11-19T00:22:56;0.83;;;0.70;;
1062;SDS011;520;50.932;6.962;2023-11-19T00:28:32;0.63;;;0.57;;
1062;SDS011;520;50.932;6.962;2023-11-19T00:31:12;0.63;;;0.57;;
1062;SDS011;520;50.932;6.962;2023-11-19T00:33:58;0.40;;;0.40;;
1062;SDS011;520;50.932;6.962;2023-11-19T00:36:35;0.50;;;0.50;;
1062;SDS011;520;50.932;6.962;2023-11-19T00:39:25;0.60;;;0.60;;
1062;SDS011;520;50.932;6.962;2023-11-19T00:42:05;2.47;;;1.10;;
1062;SDS011;520;50.932;6.962;2023-11-19T00:44:48;0.70;;;0.60;;
1062;SDS011;520;50.932;6.962;2023-11-19T00:47:49;0.70;;;0.70;;
1062;SDS011;520;50.932;6.962;2023-11-19T00:50:30;2.40;;;0.70;;
1062;SDS011;520;50.932;6.962;2023-11-19T00:53:14;0.67;;;0.67;;
1062;SDS011;520;50.932;6.962;2023-11-19T00:56:10;2.60;;;0.77;;
1062;SDS011;520;50.932;6.962;2023-11-19T00:59:02;1.17;;;0.53;;
1062;SDS011;520;50.932;6.962;2023-11-19T01:01:51;0.80;;;0.80;;
1062;SDS011;520;50.932;6.962;2023-11-19T01:04:38;0.80;;;0.80;;
1062;SDS011;520;50.932;6.962;2023-11-19T01:07:20;1.23;;;0.50;;
1062;SDS011;520;50.932;6.962;2023-11-19T01:10:36;0.60;;;0.60;;
1062;SDS011;520;50.932;6.962;2023-11-19T01:13:10;0.73;;;0.53;;
1062;SDS011;520;50.932;6.962;2023-11-19T01:15:52;1.67;;;1.07;;
1062;SDS011;520;50.932;6.962;2023-11-19T01:18:51;0.90;;;0.70;;
1062;SDS011;520;50.932;6.962;2023-11-19T01:21:33;1.37;;;0.70;;
1062;SDS011;520;50.932;6.962;2023-11-19T01:24:37;2.30;;;1.10;;
1062;SDS011;520;50.932;6.962;2023-11-19T01:27:52;1.10;;;0.90;;
1062;SDS011;520;50.932;6.962;2023-11-19T01:30:53;1.00;;;0.90;;
1062;SDS011;520;50.932;6.962;2023-11-19T01:33:44;0.57;;;0.57;;
1062;SDS011;520;50.932;6.962;2023-11-19T01:36:31;2.93;;;0.90;;
1062;SDS011;520;50.932;6.962;2023-11-19T01:39:18;0.63;;;0.63;;
1062;SDS011;520;50.932;6.962;2023-11-19T01:41:56;1.00;;;0.83;;
1062;SDS011;520;50.932;6.962;2023-11-19T01:48:10;0.67;;;0.67;;
1062;SDS011;520;50.932;6.962;2023-11-19T01:51:16;0.77;;;0.77;;
1062;SDS011;520;50.932;6.962;2023-11-19T01:54:12;1.23;;;0.60;;
1062;SDS011;520;50.932;6.962;2023-11-19T01:57:12;0.80;;;0.80;;
1062;SDS011;520;50.932;6.962;2023-11-19T01:59:51;0.93;;;0.70;;
1062;SDS011;520;50.932;6.962;2023-11-19T02:02:28;1.90;;;1.00;;
1062;SDS011;520;50.932;6.962;2023-11-19T02:05:25;1.73;;;1.00;;
1062;SDS011;520;50.932;6.962;2023-11-19T02:11:28;2.10;;;1.00;;
1062;SDS011;520;50.932;6.962;2023-11-19T02:14:35;2.37;;;1.00;;
1062;SDS011;520;50.932;6.962;2023-11-19T02:21:24;7.47;;;1.20;;
1062;SDS011;520;50.932;6.962;2023-11-19T02:24:24;1.90;;;0.87;;
1062;SDS011;520;50.932;6.962;2023-11-19T02:27:27;1.13;;;0.90;;
1062;SDS011;520;50.932;6.962;2023-11-19T02:30:08;3.57;;;2.20;;
1062;SDS011;520;50.932;6.962;2023-11-19T02:32:54;3.77;;;1.67;;
1062;SDS011;520;50.932;6.962;2023-11-19T02:35:51;1.97;;;1.10;;
1062;SDS011;520;50.932;6.962;2023-11-19T02:38:39;1.80;;;1.03;;
1062;SDS011;520;50.932;6.962;2023-11-19T02:41:37;3.23;;;1.13;;
1062;SDS011;520;50.932;6.962;2023-11-19T02:44:29;2.67;;;1.00;;
1062;SDS011;520;50.932;6.962;2023-11-19T02:47:13;4.00;;;1.00;;
1062;SDS011;520;50.932;6.962;2023-11-19T02:50:29;1.90;;;1.20;;
1062;SDS011;520;50.932;6.962;2023-11-19T02:53:31;2.50;;;1.00;;
1062;SDS011;520;50.932;6.962;2023-11-19T02:56:28;4.47;;;1.40;;
1062;SDS011;520;50.932;6.962;2023-11-19T02:59:28;2.33;;;1.23;;
1062;SDS011;520;50.932;6.962;2023-11-19T03:02:20;2.23;;;1.17;;
1062;SDS011;520;50.932;6.962;2023-11-19T03:05:17;4.60;;;1.20;;
1062;SDS011;520;50.932;6.962;2023-11-19T03:11:33;3.63;;;1.20;;
1062;SDS011;520;50.932;6.962;2023-11-19T03:18:33;4.43;;;1.30;;
1062;SDS011;520;50.932;6.962;2023-11-19T03:21:14;2.90;;;1.00;;
1062;SDS011;520;50.932;6.962;2023-11-19T03:24:16;1.80;;;1.27;;
1062;SDS011;520;50.932;6.962;2023-11-19T03:27:10;3.00;;;1.30;;
1062;SDS011;520;50.932;6.962;2023-11-19T03:30:05;2.40;;;1.30;;
1062;SDS011;520;50.932;6.962;2023-11-19T03:32:59;1.93;;;1.03;;
1062;SDS011;520;50.932;6.962;2023-11-19T03:35:54;5.10;;;1.13;;
1062;SDS011;520;50.932;6.962;2023-11-19T03:38:53;1.87;;;1.63;;
1062;SDS011;520;50.932;6.962;2023-11-19T03:41:46;6.80;;;1.67;;
1062;SDS011;520;50.932;6.962;2023-11-19T03:44:51;4.03;;;1.37;;
1062;SDS011;520;50.932;6.962;2023-11-19T03:47:49;4.17;;;1.27;;
1062;SDS011;520;50.932;6.962;2023-11-19T03:50:34;5.77;;;1.33;;
1062;SDS011;520;50.932;6.962;2023-11-19T03:53:23;3.93;;;1.50;;
1062;SDS011;520;50.932;6.962;2023-11-19T03:56:06;4.90;;;1.60;;
1062;SDS011;520;50.932;6.962;2023-11-19T03:59:05;3.70;;;1.63;;
1062;SDS011;520;50.932;6.962;2023-11-19T04:02:26;4.00;;;1.90;;
1062;SDS011;520;50.932;6.962;2023-11-19T04:05:01;3.20;;;1.23;;
1062;SDS011;520;50.932;6.962;2023-11-19T04:07:35;2.67;;;1.60;;
1062;SDS011;520;50.932;6.962;2023-11-19T04:10:18;3.30;;;1.30;;
1062;SDS011;520;50.932;6.962;2023-11-19T04:13:18;4.40;;;1.77;;
1062;SDS011;520;50.932;6.962;2023-11-19T04:16:03;4.00;;;1.33;;
1062;SDS011;520;50.932;6.962;2023-11-19T04:18:45;3.57;;;1.63;;
1062;SDS011;520;50.932;6.962;2023-11-19T04:21:47;3.30;;;1.10;;
1062;SDS011;520;50.932;6.962;2023-11-19T04:24:35;3.50;;;1.70;;
1062;SDS011;520;50.932;6.962;2023-11-19T04:27:18;4.10;;;1.40;;
1062;SDS011;520;50.932;6.962;2023-11-19T04:30:05;5.10;;;1.57;;
1062;SDS011;520;50.932;6.962;2023-11-19T04:32:49;4.73;;;1.47;;
1062;SDS011;520;50.932;6.962;2023-11-19T04:35:48;5.10;;;1.50;;
1062;SDS011;520;50.932;6.962;2023-11-19T04:38:35;7.07;;;3.67;;
1062;SDS011;520;50.932;6.962;2023-11-19T04:41:36;4.17;;;1.77;;
1062;SDS011;520;50.932;6.962;2023-11-19T04:47:34;6.30;;;1.70;;
1062;SDS011;520;50.932;6.962;2023-11-19T04:50:56;7.07;;;2.33;;
1062;SDS011;520;50.932;6.962;2023-11-19T04:54:08;5.60;;;1.70;;
1062;SDS011;520;50.932;6.962;2023-11-19T04:57:10;10.20;;;2.37;;
1062;SDS011;520;50.932;6.962;2023-11-19T04:59:45;6.67;;;1.93;;
1062;SDS011;520;50.932;6.962;2023-11-19T05:02:49;5.87;;;1.83;;
1062;SDS011;520;50.932;6.962;2023-11-19T05:06:01;5.07;;;1.93;;
1062;SDS011;520;50.932;6.962;2023-11-19T05:09:04;4.90;;;1.93;;
1062;SDS011;520;50.932;6.962;2023-11-19T05:11:43;9.63;;;2.13;;
1062;SDS011;520;50.932;6.962;2023-11-19T05:14:34;5.90;;;1.93;;
1062;SDS011;520;50.932;6.962;2023-11-19T05:17:51;7.60;;;2.10;;
1062;SDS011;520;50.932;6.962;2023-11-19T05:20:58;7.23;;;2.13;;
1062;SDS011;520;50.932;6.962;2023-11-19T05:26:54;4.70;;;2.20;;
1062;SDS011;520;50.932;6.962;2023-11-19T05:29:59;4.90;;;1.57;;
1062;SDS011;520;50.932;6.962;2023-11-19T05:33:06;7.50;;;2.50;;
1062;SDS011;520;50.932;6.962;2023-11-19T05:35:45;6.17;;;1.97;;
1062;SDS011;520;50.932;6.962;2023-11-19T05:38:21;7.50;;;1.80;;
1062;SDS011;520;50.932;6.962;2023-11-19T05:41:07;10.70;;;2.37;;
1062;SDS011;520;50.932;6.962;2023-11-19T05:43:51;8.47;;;2.83;;
1062;SDS011;520;50.932;6.962;2023-11-19T05:46:35;6.83;;;1.73;;
1062;SDS011;520;50.932;6.962;2023-11-19T05:49:26;8.60;;;1.83;;
1062;SDS011;520;50.932;6.962;2023-11-19T05:52:14;5.20;;;1.70;;
1062;SDS011;520;50.932;6.962;2023-11-19T05:55:04;5.80;;;1.83;;
1062;SDS011;520;50.932;6.962;2023-11-19T05:57:44;7.73;;;2.07;;
1062;SDS011;520;50.932;6.962;2023-11-19T06:00:34;6.20;;;2.10;;
1062;SDS011;520;50.932;6.962;2023-11-19T06:03:55;13.57;;;2.00;;
1062;SDS011;520;50.932;6.962;2023-11-19T06:06:51;8.13;;;2.30;;
1062;SDS011;520;50.932;6.962;2023-11-19T06:09:45;5.43;;;2.30;;
1062;SDS011;520;50.932;6.962;2023-11-19T06:12:35;8.93;;;2.27;;
1062;SDS011;520;50.932;6.962;2023-11-19T06:15:09;6.60;;;2.23;;
1062;SDS011;520;50.932;6.962;2023-11-19T06:17:56;4.50;;;2.40;;
1062;SDS011;520;50.932;6.962;2023-11-19T06:20:40;8.23;;;2.33;;
1062;SDS011;520;50.932;6.962;2023-11-19T06:23:16;7.20;;;2.40;;
1062;SDS011;520;50.932;6.962;2023-11-19T06:26:03;8.03;;;3.20;;
1062;SDS011;520;50.932;6.962;2023-11-19T06:29:01;5.93;;;1.93;;
1062;SDS011;520;50.932;6.962;2023-11-19T06:31:41;6.47;;;2.03;;
1062;SDS011;520;50.932;6.962;2023-11-19T06:34:29;10.60;;;2.43;;
1062;SDS011;520;50.932;6.962;2023-11-19T06:37:06;9.10;;;2.80;;
1062;SDS011;520;50.932;6.962;2023-11-19T06:39:40;12.70;;;2.50;;
1062;SDS011;520;50.932;6.962;2023-11-19T06:42:19;7.03;;;2.10;;
1062;SDS011;520;50.932;6.962;2023-11-19T06:45:07;5.10;;;2.73;;
1062;SDS011;520;50.932;6.962;2023-11-19T06:47:51;11.77;;;3.23;;
1062;SDS011;520;50.932;6.962;2023-11-19T06:53:38;6.77;;;2.43;;
1062;SDS011;520;50.932;6.962;2023-11-19T06:56:28;8.40;;;2.43;;
1062;SDS011;520;50.932;6.962;2023-11-19T06:59:17;18.57;;;3.77;;
1062;SDS011;520;50.932;6.962;2023-11-19T07:01:51;11.00;;;4.30;;
1062;SDS011;520;50.932;6.962;2023-11-19T07:04:44;10.30;;;2.20;;
1062;SDS011;520;50.932;6.962;2023-11-19T07:10:20;7.30;;;1.90;;
1062;SDS011;520;50.932;6.962;2023-11-19T07:13:16;10.50;;;2.33;;
1062;SDS011;520;50.932;6.962;2023-11-19T07:16:08;8.13;;;2.90;;
1062;SDS011;520;50.932;6.962;2023-11-19T07:18:55;17.17;;;2.90;;
1062;SDS011;520;50.932;6.962;2023-11-19T07:22:02;9.80;;;3.00;;
1062;SDS011;520;50.932;6.962;2023-11-19T07:24:59;9.97;;;2.30;;
1062;SDS011;520;50.932;6.962;2023-11-19T07:27:56;15.23;;;3.23;;
1062;SDS011;520;50.932;6.962;2023-11-19T07:34:01;10.43;;;2.40;;
1062;SDS011;520;50.932;6.962;2023-11-19T07:36:52;10.33;;;2.10;;
1062;SDS011;520;50.932;6.962;2023-11-19T07:39:34;12.37;;;3.60;;
1062;SDS011;520;50.932;6.962;2023-11-19T07:42:23;14.57;;;2.67;;
1062;SDS011;520;50.932;6.962;2023-11-19T07:45:02;9.37;;;2.73;;
1062;SDS011;520;50.932;6.962;2023-11-19T07:47:52;9.40;;;2.63;;
1062;SDS011;520;50.932;6.962;2023-11-19T07:50:36;9.17;;;3.07;;
1062;SDS011;520;50.932;6.962;2023-11-19T07:53:30;8.00;;;3.13;;
1062;SDS011;520;50.932;6.962;2023-11-19T07:56:25;7.50;;;2.90;;
1062;SDS011;520;50.932;6.962;2023-11-19T07:59:21;9.17;;;2.60;;
1062;SDS011;520;50.932;6.962;2023-11-19T08:02:17;15.87;;;2.80;;
1062;SDS011;520;50.932;6.962;2023-11-19T08:05:11;8.57;;;2.37;;
1062;SDS011;520;50.932;6.962;2023-11-19T08:08:31;13.23;;;3.03;;
1062;SDS011;520;50.932;6.962;2023-11-19T08:11:15;12.17;;;2.83;;
1062;SDS011;520;50.932;6.962;2023-11-19T08:14:09;6.23;;;2.87;;
1062;SDS011;520;50.932;6.962;2023-11-19T08:16:59;16.23;;;3.70;;
1062;SDS011;520;50.932;6.962;2023-11-19T08:19:44;10.07;;;2.87;;
1062;SDS011;520;50.932;6.962;2023-11-19T08:25:38;9.63;;;2.20;;
1062;SDS011;520;50.932;6.962;2023-11-19T08:28:20;11.70;;;3.10;;
1062;SDS011;520;50.932;6.962;2023-11-19T08:31:24;14.07;;;2.47;;
1062;SDS011;520;50.932;6.962;2023-11-19T08:34:14;11.10;;;3.73;;
1062;SDS011;520;50.932;6.962;2023-11-19T08:37:34;12.13;;;2.93;;
1062;SDS011;520;50.932;6.962;2023-11-19T08:40:14;14.80;;;3.40;;
1062;SDS011;520;50.932;6.962;2023-11-19T08:49:56;6.90;;;2.97;;
1062;SDS011;520;50.932;6.962;2023-11-19T08:56:06;14.67;;;3.10;;
1062;SDS011;520;50.932;6.962;2023-11-19T08:59:09;10.63;;;3.00;;
1062;SDS011;520;50.932;6.962;2023-11-19T09:02:31;12.30;;;3.47;;
1062;SDS011;520;50.932;6.962;2023-11-19T09:05:56;13.10;;;3.63;;
1062;SDS011;520;50.932;6.962;2023-11-19T09:14:30;10.60;;;2.83;;
1062;SDS011;520;50.932;6.962;2023-11-19T09:21:00;11.03;;;2.37;;
1062;SDS011;520;50.932;6.962;2023-11-19T09:23:39;9.73;;;2.30;;
1062;SDS011;520;50.932;6.962;2023-11-19T09:26:24;12.47;;;3.27;;
1062;SDS011;520;50.932;6.962;2023-11-19T09:32:32;6.87;;;1.90;;
1062;SDS011;520;50.932;6.962;2023-11-19T09:39:03;14.87;;;3.17;;
1062;SDS011;520;50.932;6.962;2023-11-19T09:41:44;6.80;;;2.30;;
1062;SDS011;520;50.932;6.962;2023-11-19T09:44:28;9.53;;;3.63;;
1062;SDS011;520;50.932;6.962;2023-11-19T09:47:20;10.83;;;2.90;;
1062;SDS011;520;50.932;6.962;2023-11-19T09:50:26;8.60;;;2.50;;
1062;SDS011;520;50.932;6.962;2023-11-19T09:53:16;8.10;;;3.00;;
1062;SDS011;520;50.932;6.962;2023-11-19T09:56:32;11.97;;;3.07;;
1062;SDS011;520;50.932;6.962;2023-11-19T09:59:35;8.40;;;2.30;;
1062;SDS011;520;50.932;6.962;2023-11-19T10:02:33;12.83;;;2.73;;
1062;SDS011;520;50.932;6.962;2023-11-19T10:05:09;8.80;;;2.70;;
1062;SDS011;520;50.932;6.962;2023-11-19T10:13:26;9.27;;;2.60;;
1062;SDS011;520;50.932;6.962;2023-11-19T10:19:40;10.40;;;3.00;;
1062;SDS011;520;50.932;6.962;2023-11-19T10:22:36;11.77;;;2.80;;
1062;SDS011;520;50.932;6.962;2023-11-19T10:25:34;11.10;;;2.40;;
1062;SDS011;520;50.932;6.962;2023-11-19T10:28:51;10.03;;;3.33;;
1062;SDS011;520;50.932;6.962;2023-11-19T10:31:55;14.80;;;5.23;;
1062;SDS011;520;50.932;6.962;2023-11-19T10:35:04;8.87;;;3.20;;
1062;SDS011;520;50.932;6.962;2023-11-19T10:38:01;9.23;;;3.40;;
1062;SDS011;520;50.932;6.962;2023-11-19T10:41:14;12.97;;;2.40;;
1062;SDS011;520;50.932;6.962;2023-11-19T10:44:12;7.53;;;2.47;;
1062;SDS011;520;50.932;6.962;2023-11-19T10:47:22;10.33;;;2.93;;
1062;SDS011;520;50.932;6.962;2023-11-19T10:50:12;7.20;;;2.67;;
1062;SDS011;520;50.932;6.962;2023-11-19T10:52:59;10.33;;;2.50;;
1062;SDS011;520;50.932;6.962;2023-11-19T10:55:41;10.07;;;2.80;;
1062;SDS011;520;50.932;6.962;2023-11-19T10:58:10;11.87;;;2.80;;
1062;SDS011;520;50.932;6.962;2023-11-19T11:00:48;9.30;;;3.80;;
1062;SDS011;520;50.932;6.962;2023-11-19T11:03:36;14.10;;;2.60;;
1062;SDS011;520;50.932;6.962;2023-11-19T11:06:21;9.03;;;3.00;;
1062;SDS011;520;50.932;6.962;2023-11-19T11:12:31;14.87;;;2.63;;
1062;SDS011;520;50.932;6.962;2023-11-19T11:18:53;7.80;;;2.03;;
1062;SDS011;520;50.932;6.962;2023-11-19T11:21:44;5.23;;;2.00;;
1062;SDS011;520;50.932;6.962;2023-11-19T11:37:32;8.20;;;2.27;;
1062;SDS011;520;50.932;6.962;2023-11-19T11:44:06;8.90;;;2.60;;
1062;SDS011;520;50.932;6.962;2023-11-19T11:46:59;8.53;;;2.43;;
1062;SDS011;520;50.932;6.962;2023-11-19T11:53:32;8.03;;;2.10;;
1062;SDS011;520;50.932;6.962;2023-11-19T12:02:30;7.70;;;2.07;;
1062;SDS011;520;50.932;6.962;2023-11-19T12:08:50;3.77;;;1.47;;
1062;SDS011;520;50.932;6.962;2023-11-19T12:11:28;9.23;;;1.90;;
1062;SDS011;520;50.932;6.962;2023-11-19T12:20:41;8.13;;;3.50;;
1062;SDS011;520;50.932;6.962;2023-11-19T12:23:44;10.17;;;3.03;;
1062;SDS011;520;50.932;6.962;2023-11-19T12:26:58;5.93;;;1.77;;
1062;SDS011;520;50.932;6.962;2023-11-19T12:29:49;6.07;;;2.23;;
1062;SDS011;520;50.932;6.962;2023-11-19T12:32:45;9.27;;;2.50;;
1062;SDS011;520;50.932;6.962;2023-11-19T12:35:40;4.40;;;1.70;;
1062;SDS011;520;50.932;6.962;2023-11-19T12:38:34;9.07;;;3.30;;
1062;SDS011;520;50.932;6.962;2023-11-19T12:41:52;7.47;;;2.30;;
1062;SDS011;520;50.932;6.962;2023-11-19T12:44:48;7.30;;;2.53;;
1062;SDS011;520;50.932;6.962;2023-11-19T12:50:32;7.23;;;2.00;;
1062;SDS011;520;50.932;6.962;2023-11-19T12:53:46;6.13;;;1.80;;
1062;SDS011;520;50.932;6.962;2023-11-19T12:56:32;7.87;;;1.90;;
1062;SDS011;520;50.932;6.962;2023-11-19T12:59:22;5.27;;;2.10;;
1062;SDS011;520;50.932;6.962;2023-11-19T13:08:20;5.53;;;2.80;;
1062;SDS011;520;50.932;6.962;2023-11-19T13:11:40;7.03;;;1.83;;
1062;SDS011;520;50.932;6.962;2023-11-19T13:14:36;8.83;;;2.77;;
1062;SDS011;520;50.932;6.962;2023-11-19T13:17:29;7.47;;;5.13;;
1062;SDS011;520;50.932;6.962;2023-11-19T13:23:11;12.90;;;2.40;;
1062;SDS011;520;50.932;6.962;2023-11-19T13:26:04;6.43;;;2.00;;
1062;SDS011;520;50.932;6.962;2023-11-19T13:28:41;8.47;;;3.87;;
1062;SDS011;520;50.932;6.962;2023-11-19T13:31:20;7.83;;;2.03;;
1062;SDS011;520;50.932;6.962;2023-11-19T13:36:39;4.70;;;1.87;;
1062;SDS011;520;50.932;6.962;2023-11-19T13:42:20;6.30;;;2.10;;
1062;SDS011;520;50.932;6.962;2023-11-19T13:44:58;9.30;;;2.80;;
1062;SDS011;520;50.932;6.962;2023-11-19T13:47:56;9.37;;;2.97;;
1062;SDS011;520;50.932;6.962;2023-11-19T13:50:33;7.37;;;2.53;;
1062;SDS011;520;50.932;6.962;2023-11-19T13:53:21;6.73;;;2.30;;
1062;SDS011;520;50.932;6.962;2023-11-19T13:55:56;9.80;;;2.30;;
1062;SDS011;520;50.932;6.962;2023-11-19T13:58:34;7.73;;;2.37;;
1062;SDS011;520;50.932;6.962;2023-11-19T14:01:11;7.70;;;2.20;;
1062;SDS011;520;50.932;6.962;2023-11-19T14:03:57;7.57;;;2.20;;
1062;SDS011;520;50.932;6.962;2023-11-19T14:06:34;7.53;;;2.57;;
1062;SDS011;520;50.932;6.962;2023-11-19T14:09:12;6.70;;;1.83;;
1062;SDS011;520;50.932;6.962;2023-11-19T14:12:15;7.60;;;2.23;;
1062;SDS011;520;50.932;6.962;2023-11-19T14:15:00;5.73;;;2.10;;
1062;SDS011;520;50.932;6.962;2023-11-19T14:17:49;10.80;;;2.90;;
1062;SDS011;520;50.932;6.962;2023-11-19T14:20:39;5.17;;;2.10;;
1062;SDS011;520;50.932;6.962;2023-11-19T14:26:36;11.33;;;2.67;;
1062;SDS011;520;50.932;6.962;2023-11-19T14:29:30;5.70;;;1.70;;
1062;SDS011;520;50.932;6.962;2023-11-19T14:32:09;3.50;;;1.67;;
1062;SDS011;520;50.932;6.962;2023-11-19T14:34:47;7.73;;;2.17;;
1062;SDS011;520;50.932;6.962;2023-11-19T14:37:17;6.90;;;1.97;;
1062;SDS011;520;50.932;6.962;2023-11-19T14:39:58;6.70;;;2.60;;
1062;SDS011;520;50.932;6.962;2023-11-19T14:42:44;5.33;;;2.00;;
1062;SDS011;520;50.932;6.962;2023-11-19T14:45:23;11.20;;;1.73;;
1062;SDS011;520;50.932;6.962;2023-11-19T14:47:58;6.67;;;1.87;;
1062;SDS011;520;50.932;6.962;2023-11-19T14:50:37;5.73;;;1.80;;
1062;SDS011;520;50.932;6.962;2023-11-19T14:53:27;7.70;;;2.20;;
1062;SDS011;520;50.932;6.962;2023-11-19T14:56:11;7.40;;;1.83;;
1062;SDS011;520;50.932;6.962;2023-11-19T14:59:05;6.93;;;2.80;;
1062;SDS011;520;50.932;6.962;2023-11-19T15:01:57;12.07;;;2.33;;
1062;SDS011;520;50.932;6.962;2023-11-19T15:04:37;5.53;;;1.50;;
1062;SDS011;520;50.932;6.962;2023-11-19T15:07:23;8.00;;;2.10;;
1062;SDS011;520;50.932;6.962;2023-11-19T15:10:06;9.60;;;2.40;;
1062;SDS011;520;50.932;6.962;2023-11-19T15:12:43;7.77;;;3.00;;
1062;SDS011;520;50.932;6.962;2023-11-19T15:15:15;7.07;;;2.30;;
1062;SDS011;520;50.932;6.962;2023-11-19T15:18:03;6.77;;;2.47;;
1062;SDS011;520;50.932;6.962;2023-11-19T15:20:43;11.53;;;2.30;;
1062;SDS011;520;50.932;6.962;2023-11-19T15:23:31;10.33;;;2.43;;
1062;SDS011;520;50.932;6.962;2023-11-19T15:26:04;7.80;;;1.97;;
1062;SDS011;520;50.932;6.962;2023-11-19T15:28:39;10.40;;;3.07;;
1062;SDS011;520;50.932;6.962;2023-11-19T15:31:15;10.87;;;3.77;;
1062;SDS011;520;50.932;6.962;2023-11-19T15:33:57;7.17;;;2.40;;
1062;SDS011;520;50.932;6.962;2023-11-19T15:36:45;9.63;;;2.50;;
1062;SDS011;520;50.932;6.962;2023-11-19T15:39:24;5.20;;;2.50;;
1062;SDS011;520;50.932;6.962;2023-11-19T15:42:04;7.53;;;2.73;;
1062;SDS011;520;50.932;6.962;2023-11-19T15:44:49;5.50;;;3.30;;
1062;SDS011;520;50.932;6.962;2023-11-19T15:50:41;8.33;;;2.63;;
1062;SDS011;520;50.932;6.962;2023-11-19T15:53:17;5.60;;;2.03;;
1062;SDS011;520;50.932;6.962;2023-11-19T15:56:05;12.40;;;4.27;;
1062;SDS011;520;50.932;6.962;2023-11-19T15:58:42;8.57;;;2.70;;
1062;SDS011;520;50.932;6.962;2023-11-19T16:01:23;9.40;;;2.73;;
1062;SDS011;520;50.932;6.962;2023-11-19T16:04:01;9.90;;;3.03;;
1062;SDS011;520;50.932;6.962;2023-11-19T16:06:55;6.33;;;1.87;;
1062;SDS011;520;50.932;6.962;2023-11-19T16:09:37;5.90;;;1.80;;
1062;SDS011;520;50.932;6.962;2023-11-19T16:12:36;5.20;;;1.67;;
1062;SDS011;520;50.932;6.962;2023-11-19T16:15:17;11.30;;;2.10;;
1062;SDS011;520;50.932;6.962;2023-11-19T16:18:17;8.63;;;2.37;;
1062;SDS011;520;50.932;6.962;2023-11-19T16:20:50;5.27;;;2.63;;
1062;SDS011;520;50.932;6.962;2023-11-19T16:23:28;7.00;;;1.83;;
1062;SDS011;520;50.932;6.962;2023-11-19T16:26:10;7.53;;;2.40;;
1062;SDS011;520;50.932;6.962;2023-11-19T16:28:40;13.30;;;2.67;;
1062;SDS011;520;50.932;6.962;2023-11-19T16:31:13;6.37;;;2.83;;
1062;SDS011;520;50.932;6.962;2023-11-19T16:33:54;6.23;;;1.87;;
1062;SDS011;520;50.932;6.962;2023-11-19T16:36:26;8.87;;;2.03;;
1062;SDS011;520;50.932;6.962;2023-11-19T16:39:02;6.67;;;2.10;;
1062;SDS011;520;50.932;6.962;2023-11-19T16:41:36;8.07;;;2.40;;
1062;SDS011;520;50.932;6.962;2023-11-19T16:44:13;6.07;;;2.07;;
1062;SDS011;520;50.932;6.962;2023-11-19T16:47:02;5.57;;;2.30;;
1062;SDS011;520;50.932;6.962;2023-11-19T16:49:32;10.33;;;2.97;;
1062;SDS011;520;50.932;6.962;2023-11-19T16:52:22;9.27;;;2.10;;
1062;SDS011;520;50.932;6.962;2023-11-19T16:55:08;7.63;;;2.43;;
1062;SDS011;520;50.932;6.962;2023-11-19T16:57:41;14.30;;;3.00;;
1062;SDS011;520;50.932;6.962;2023-11-19T17:00:15;9.00;;;2.83;;
1062;SDS011;520;50.932;6.962;2023-11-19T17:03:08;9.57;;;3.57;;
1062;SDS011;520;50.932;6.962;2023-11-19T17:05:46;9.83;;;3.10;;
1062;SDS011;520;50.932;6.962;2023-11-19T17:08:25;15.10;;;3.20;;
1062;SDS011;520;50.932;6.962;2023-11-19T17:11:25;4.73;;;2.80;;
1062;SDS011;520;50.932;6.962;2023-11-19T17:14:04;5.93;;;2.00;;
1062;SDS011;520;50.932;6.962;2023-11-19T17:16:34;8.70;;;2.77;;
1062;SDS011;520;50.932;6.962;2023-11-19T17:19:26;7.00;;;2.20;;
1062;SDS011;520;50.932;6.962;2023-11-19T17:21:57;9.93;;;2.00;;
1062;SDS011;520;50.932;6.962;2023-11-19T17:24:34;9.30;;;2.70;;
1062;SDS011;520;50.932;6.962;2023-11-19T17:27:09;10.80;;;2.50;;
1062;SDS011;520;50.932;6.962;2023-11-19T17:29:45;6.80;;;3.20;;
1062;SDS011;520;50.932;6.962;2023-11-19T17:36:18;7.23;;;3.20;;
1062;SDS011;520;50.932;6.962;2023-11-19T17:38:55;11.97;;;2.97;;
1062;SDS011;520;50.932;6.962;2023-11-19T17:42:02;8.40;;;2.70;;
1062;SDS011;520;50.932;6.962;2023-11-19T17:44:35;5.83;;;2.37;;
1062;SDS011;520;50.932;6.962;2023-11-19T17:47:10;7.97;;;2.50;;
1062;SDS011;520;50.932;6.962;2023-11-19T17:49:50;10.80;;;2.87;;
1062;SDS011;520;50.932;6.962;2023-11-19T17:52:47;8.87;;;2.90;;
1062;SDS011;520;50.932;6.962;2023-11-19T17:58:56;6.80;;;2.07;;
1062;SDS011;520;50.932;6.962;2023-11-19T18:08:35;8.70;;;1.80;;
1062;SDS011;520;50.932;6.962;2023-11-19T18:11:12;7.07;;;2.47;;
1062;SDS011;520;50.932;6.962;2023-11-19T18:14:04;12.17;;;2.30;;
1062;SDS011;520;50.932;6.962;2023-11-19T18:16:36;8.60;;;2.37;;
1062;SDS011;520;50.932;6.962;2023-11-19T18:19:16;5.23;;;2.50;;
1062;SDS011;520;50.932;6.962;2023-11-19T18:22:01;10.27;;;3.00;;
1062;SDS011;520;50.932;6.962;2023-11-19T18:24:52;13.30;;;3.03;;
1062;SDS011;520;50.932;6.962;2023-11-19T18:27:42;10.00;;;5.40;;
1062;SDS011;520;50.932;6.962;2023-11-19T18:30:30;10.17;;;2.83;;
1062;SDS011;520;50.932;6.962;2023-11-19T18:33:02;14.83;;;2.53;;
1062;SDS011;520;50.932;6.962;2023-11-19T18:38:28;9.97;;;2.30;;
1062;SDS011;520;50.932;6.962;2023-11-19T18:41:08;7.20;;;2.00;;
1062;SDS011;520;50.932;6.962;2023-11-19T18:43:45;7.77;;;2.20;;
1062;SDS011;520;50.932;6.962;2023-11-19T18:46:29;9.60;;;2.40;;
1062;SDS011;520;50.932;6.962;2023-11-19T18:49:09;6.73;;;1.83;;
1062;SDS011;520;50.932;6.962;2023-11-19T18:51:46;5.47;;;1.53;;
1062;SDS011;520;50.932;6.962;2023-11-19T18:54:49;9.00;;;2.40;;
1062;SDS011;520;50.932;6.962;2023-11-19T18:57:40;8.27;;;3.17;;
1062;SDS011;520;50.932;6.962;2023-11-19T19:00:13;6.03;;;1.87;;
1062;SDS011;520;50.932;6.962;2023-11-19T19:02:47;3.50;;;1.50;;
1062;SDS011;520;50.932;6.962;2023-11-19T19:05:20;7.90;;;2.20;;
1062;SDS011;520;50.932;6.962;2023-11-19T19:07:55;2.97;;;1.23;;
1062;SDS011;520;50.932;6.962;2023-11-19T19:10:36;8.00;;;2.53;;
1062;SDS011;520;50.932;6.962;2023-11-19T19:13:14;5.27;;;1.93;;
1062;SDS011;520;50.932;6.962;2023-11-19T19:15:54;11.10;;;1.87;;
1062;SDS011;520;50.932;6.962;2023-11-19T19:18:47;5.97;;;2.30;;
1062;SDS011;520;50.932;6.962;2023-11-19T19:21:30;3.70;;;1.27;;
1062;SDS011;520;50.932;6.962;2023-11-19T19:24:18;5.97;;;1.90;;
1062;SDS011;520;50.932;6.962;2023-11-19T19:27:07;9.03;;;1.97;;
1062;SDS011;520;50.932;6.962;2023-11-19T19:29:51;2.93;;;1.03;;
1062;SDS011;520;50.932;6.962;2023-11-19T19:32:41;3.73;;;1.33;;
1062;SDS011;520;50.932;6.962;2023-11-19T19:35:11;4.13;;;1.47;;
1062;SDS011;520;50.932;6.962;2023-11-19T19:38:47;4.90;;;2.50;;
1062;SDS011;520;50.932;6.962;2023-11-19T19:41:28;2.80;;;1.30;;
1062;SDS011;520;50.932;6.962;2023-11-19T19:44:19;8.10;;;1.90;;
1062;SDS011;520;50.932;6.962;2023-11-19T19:47:19;4.93;;;1.73;;
1062;SDS011;520;50.932;6.962;2023-11-19T19:50:07;2.43;;;1.60;;
1062;SDS011;520;50.932;6.962;2023-11-19T19:52:56;6.00;;;1.83;;
1062;SDS011;520;50.932;6.962;2023-11-19T19:55:40;5.03;;;1.80;;
1062;SDS011;520;50.932;6.962;2023-11-19T19:58:15;5.17;;;1.70;;
1062;SDS011;520;50.932;6.962;2023-11-19T20:00:59;6.00;;;1.90;;
1062;SDS011;520;50.932;6.962;2023-11-19T20:03:38;3.30;;;1.80;;
1062;SDS011;520;50.932;6.962;2023-11-19T20:06:08;5.20;;;1.80;;
1062;SDS011;520;50.932;6.962;2023-11-19T20:09:10;6.90;;;1.20;;
1062;SDS011;520;50.932;6.962;2023-11-19T20:12:03;2.13;;;1.30;;
1062;SDS011;520;50.932;6.962;2023-11-19T20:14:52;6.30;;;1.80;;
1062;SDS011;520;50.932;6.962;2023-11-19T20:23:22;2.73;;;1.30;;
1062;SDS011;520;50.932;6.962;2023-11-19T20:26:00;4.83;;;1.43;;